Time;durP1;ratioP1;P1;durP2;ratioP2;P2;SDS_P1;SDS_P2;PMS_P1;PMS_P2;Temp;Humidity;BMP_temperature;BMP_pressure;BME280_temperature;BME280_humidity;BME280_pressure;Samples;Min_cycle;Max_cycle;Signal;HPM_P1;HPM_P2
2021/11/24 00:01:12;;;;;;;8.63;6.10;;;1.70;85.60;;;;;;5094978;28;20227;-87
2021/11/24 00:03:38;;;;;;;8.90;6.27;;;1.70;86.00;;;;;;5098748;28;20202;-87
2021/11/24 00:06:03;;;;;;;8.30;6.50;;;1.70;86.10;;;;;;5080293;28;20198;-87
2021/11/24 00:08:29;;;;;;;7.73;6.57;;;1.70;87.60;;;;;;5073674;28;20292;-87
2021/11/24 00:10:55;;;;;;;6.97;6.27;;;1.70;86.50;;;;;;5094096;28;20214;-87
2021/11/24 00:13:21;;;;;;;8.67;6.93;;;1.60;87.40;;;;;;5099716;28;20183;-87
2021/11/24 00:15:47;;;;;;;9.77;6.23;;;1.70;87.80;;;;;;5096989;28;20269;-87
2021/11/24 00:18:12;;;;;;;7.53;6.73;;;1.80;88.40;;;;;;5095864;28;20202;-87
2021/11/24 00:20:39;;;;;;;8.90;6.50;;;1.90;87.00;;;;;;5099704;28;20824;-87
2021/11/24 00:23:05;;;;;;;8.83;7.10;;;1.90;86.60;;;;;;5098252;28;20191;-87
2021/11/24 00:25:30;;;;;;;10.17;6.10;;;1.90;86.00;;;;;;5085976;28;20201;-87
2021/11/24 00:27:56;;;;;;;7.03;6.23;;;1.90;85.80;;;;;;5085291;28;20214;-87
2021/11/24 00:30:22;;;;;;;7.57;6.43;;;1.70;85.70;;;;;;5078927;28;20307;-87
2021/11/24 00:32:48;;;;;;;9.77;6.13;;;1.60;86.80;;;;;;5067857;28;20280;-87
2021/11/24 00:35:13;;;;;;;6.50;5.80;;;1.50;87.50;;;;;;5074520;28;20179;-87
2021/11/24 00:37:39;;;;;;;6.70;6.10;;;1.50;88.30;;;;;;5091853;28;20199;-87
2021/11/24 00:40:06;;;;;;;7.57;6.03;;;1.50;87.80;;;;;;5093560;28;20213;-87
2021/11/24 00:42:32;;;;;;;8.10;6.87;;;1.50;88.00;;;;;;5092130;28;20235;-87
2021/11/24 00:44:58;;;;;;;9.20;7.03;;;1.50;88.00;;;;;;5089081;28;20631;-87
2021/11/24 00:47:24;;;;;;;9.23;6.80;;;1.50;89.20;;;;;;5078088;28;20210;-87
2021/11/24 00:49:49;;;;;;;9.00;6.97;;;1.50;87.20;;;;;;5076756;28;20685;-87
2021/11/24 00:52:15;;;;;;;9.33;6.83;;;1.50;88.10;;;;;;5095263;28;20743;-88
2021/11/24 00:54:41;;;;;;;7.50;6.70;;;1.50;88.40;;;;;;5099449;28;20195;-87
2021/11/24 00:57:07;;;;;;;8.50;6.77;;;1.50;87.90;;;;;;5066246;28;20285;-87
2021/11/24 00:59:32;;;;;;;9.40;6.37;;;1.50;87.20;;;;;;5076239;28;20214;-87
2021/11/24 01:01:58;;;;;;;9.10;6.27;;;1.40;87.50;;;;;;5096739;28;20266;-87
2021/11/24 01:04:24;;;;;;;8.83;5.90;;;1.30;87.90;;;;;;5100692;28;20858;-87
2021/11/24 01:06:50;;;;;;;8.67;6.53;;;1.30;89.40;;;;;;5059456;28;20218;-88
2021/11/24 01:09:16;;;;;;;9.03;6.90;;;1.40;90.10;;;;;;5073688;28;20749;-87
2021/11/24 01:11:42;;;;;;;8.03;6.10;;;1.50;89.30;;;;;;5101372;28;20275;-87
2021/11/24 01:14:08;;;;;;;8.07;6.80;;;1.50;88.60;;;;;;5062194;28;20661;-87
2021/11/24 01:16:34;;;;;;;7.67;6.10;;;1.60;86.80;;;;;;5103765;28;20191;-87
2021/11/24 01:18:59;;;;;;;9.43;7.30;;;1.50;87.10;;;;;;5081766;28;20205;-87
2021/11/24 01:21:25;;;;;;;8.57;5.97;;;1.30;87.20;;;;;;5087227;28;20620;-87
2021/11/24 01:23:52;;;;;;;7.63;6.83;;;1.20;88.00;;;;;;5087944;28;20187;-87
2021/11/24 01:26:18;;;;;;;11.07;7.13;;;1.10;89.20;;;;;;5113969;28;20211;-87
2021/11/24 01:28:44;;;;;;;9.07;6.63;;;1.00;89.20;;;;;;5113199;28;20218;-87
2021/11/24 01:31:09;;;;;;;7.80;6.23;;;1.00;90.40;;;;;;5095692;28;20219;-87
2021/11/24 01:33:35;;;;;;;9.43;6.63;;;1.10;90.60;;;;;;5093659;28;20294;-87
2021/11/24 01:36:01;;;;;;;8.70;6.60;;;1.20;89.80;;;;;;5095201;28;20190;-87
2021/11/24 01:38:27;;;;;;;7.33;6.57;;;1.10;89.70;;;;;;5089227;28;20214;-87
2021/11/24 01:40:53;;;;;;;8.07;7.27;;;1.20;89.50;;;;;;5074405;28;20704;-88
2021/11/24 01:43:19;;;;;;;8.33;5.77;;;1.20;90.20;;;;;;5096885;28;20191;-87
2021/11/24 01:45:45;;;;;;;6.80;5.90;;;1.20;89.70;;;;;;5092761;28;20194;-87
2021/11/24 01:48:11;;;;;;;8.87;6.37;;;1.20;89.60;;;;;;5090883;28;20223;-87
2021/11/24 01:50:37;;;;;;;10.37;7.20;;;1.20;89.20;;;;;;5094408;28;20206;-87
2021/11/24 01:53:03;;;;;;;9.97;6.57;;;1.20;89.20;;;;;;5091290;28;20182;-87
2021/11/24 01:55:29;;;;;;;8.90;7.33;;;1.10;90.50;;;;;;5085478;28;20202;-87
2021/11/24 01:57:55;;;;;;;8.57;6.87;;;1.20;90.00;;;;;;5092133;28;20206;-87
2021/11/24 02:00:25;;;;;;;10.43;6.90;;;1.20;89.60;;;;;;5110010;28;20210;-87
2021/11/24 02:02:51;;;;;;;7.27;6.57;;;1.20;90.00;;;;;;5111353;28;20206;-87
2021/11/24 02:05:17;;;;;;;8.30;6.43;;;1.30;90.50;;;;;;5097067;28;20178;-87
2021/11/24 02:07:43;;;;;;;7.87;6.73;;;1.30;89.40;;;;;;5094092;28;20207;-87
2021/11/24 02:10:09;;;;;;;8.60;6.30;;;1.30;88.90;;;;;;5095565;28;20210;-87
2021/11/24 02:12:36;;;;;;;9.03;6.37;;;1.20;89.60;;;;;;5092089;28;20619;-87
2021/11/24 02:15:03;;;;;;;7.47;6.63;;;1.20;90.40;;;;;;5096071;28;20199;-87
2021/11/24 02:17:29;;;;;;;7.17;6.23;;;1.20;89.50;;;;;;5096203;28;20183;-87
2021/11/24 02:19:55;;;;;;;7.83;6.53;;;1.10;90.00;;;;;;5094446;28;20409;-87
2021/11/24 02:22:21;;;;;;;8.37;6.77;;;1.00;90.30;;;;;;5078828;28;20189;-88
2021/11/24 02:24:46;;;;;;;7.77;6.90;;;1.00;91.30;;;;;;5076225;28;20210;-87
2021/11/24 02:27:14;;;;;;;8.80;6.77;;;0.90;91.40;;;;;;5094601;28;20213;-87
2021/11/24 02:29:41;;;;;;;8.67;6.70;;;0.90;91.90;;;;;;5096907;28;20245;-87
2021/11/24 02:32:07;;;;;;;10.00;7.40;;;0.80;92.80;;;;;;5090536;28;20184;-87
2021/11/24 02:34:33;;;;;;;8.83;7.17;;;0.80;93.20;;;;;;5078861;28;20556;-87
2021/11/24 02:37:00;;;;;;;8.17;7.33;;;0.70;93.30;;;;;;5079283;28;20217;-87
2021/11/24 02:39:26;;;;;;;7.70;6.77;;;0.70;94.00;;;;;;5095724;28;20312;-87
2021/11/24 02:41:52;;;;;;;9.97;7.40;;;0.70;94.30;;;;;;5097024;28;20744;-87
2021/11/24 02:44:23;;;;;;;8.87;7.60;;;0.60;94.40;;;;;;5097837;28;20203;-87
2021/11/24 02:46:50;;;;;;;9.30;6.83;;;0.70;94.30;;;;;;5095033;28;20207;-87
2021/11/24 02:49:16;;;;;;;8.00;7.20;;;0.60;93.90;;;;;;5098118;28;20283;-87
2021/11/24 02:51:44;;;;;;;8.17;7.27;;;0.60;94.70;;;;;;5095365;28;20198;-87
2021/11/24 02:54:11;;;;;;;8.17;7.07;;;0.60;94.70;;;;;;5095419;28;20240;-87
2021/11/24 02:56:38;;;;;;;7.63;6.87;;;0.70;94.50;;;;;;5097472;28;20554;-87
2021/11/24 02:59:04;;;;;;;8.03;7.00;;;0.60;94.20;;;;;;5094692;28;20186;-87
2021/11/24 03:01:30;;;;;;;8.27;7.30;;;0.70;94.30;;;;;;5090970;28;20199;-87
2021/11/24 03:03:56;;;;;;;12.20;7.37;;;0.70;93.80;;;;;;5095814;28;20202;-87
2021/11/24 03:06:22;;;;;;;8.43;7.43;;;0.70;93.20;;;;;;5098898;28;20209;-87
2021/11/24 03:08:48;;;;;;;9.87;7.43;;;0.60;93.60;;;;;;5091085;28;20191;-87
2021/11/24 03:11:13;;;;;;;8.10;6.93;;;0.60;94.20;;;;;;5094887;28;20217;-88
2021/11/24 03:13:39;;;;;;;8.40;7.53;;;0.60;94.50;;;;;;5096661;28;20254;-87
2021/11/24 03:16:05;;;;;;;8.30;7.50;;;0.60;94.20;;;;;;5096413;28;20653;-88
2021/11/24 03:18:30;;;;;;;10.10;7.60;;;0.60;93.50;;;;;;5093393;28;20244;-87
2021/11/24 03:20:56;;;;;;;9.83;8.00;;;0.50;93.80;;;;;;5099374;28;20258;-87
2021/11/24 03:23:22;;;;;;;7.97;6.67;;;0.50;94.60;;;;;;5078710;28;20205;-87
2021/11/24 03:25:48;;;;;;;9.33;7.60;;;0.50;95.30;;;;;;5098184;28;20280;-87
2021/11/24 03:28:13;;;;;;;8.97;7.50;;;0.50;95.10;;;;;;5109760;28;20213;-87
2021/11/24 03:30:39;;;;;;;7.73;6.93;;;0.70;94.80;;;;;;5100721;28;20219;-87
2021/11/24 03:33:05;;;;;;;7.63;6.83;;;0.70;93.60;;;;;;5060614;28;20248;-87
2021/11/24 03:35:33;;;;;;;10.53;6.87;;;0.70;94.10;;;;;;5086463;28;20215;-87
2021/11/24 03:37:59;;;;;;;8.53;7.37;;;0.70;93.40;;;;;;5087101;28;20613;-87
2021/11/24 03:40:28;;;;;;;10.90;7.37;;;0.70;93.20;;;;;;5075952;28;20251;-87
2021/11/24 03:42:54;;;;;;;8.63;7.50;;;0.70;93.60;;;;;;5095509;28;20242;-87
2021/11/24 03:45:24;;;;;;;7.80;6.60;;;0.60;93.70;;;;;;5097080;28;20188;-87
2021/11/24 03:47:50;;;;;;;8.70;7.47;;;0.70;94.00;;;;;;5094991;28;20213;-87
2021/11/24 03:50:16;;;;;;;10.07;8.17;;;0.70;93.70;;;;;;5093811;28;20291;-87
2021/11/24 03:52:43;;;;;;;9.57;7.60;;;0.70;93.60;;;;;;5096850;28;20194;-87
2021/11/24 03:55:11;;;;;;;10.07;7.60;;;0.60;93.90;;;;;;5105087;28;20167;-87
2021/11/24 03:57:37;;;;;;;12.60;8.40;;;0.70;94.00;;;;;;5113359;28;20483;-87
2021/11/24 04:00:05;;;;;;;10.20;7.33;;;0.70;93.80;;;;;;5094764;28;20259;-87
2021/11/24 04:02:31;;;;;;;8.27;7.37;;;0.70;94.50;;;;;;5094899;28;20236;-87
2021/11/24 04:04:57;;;;;;;9.97;8.23;;;0.70;94.30;;;;;;5112896;28;20194;-86
2021/11/24 04:07:23;;;;;;;8.50;7.70;;;0.70;94.90;;;;;;5110975;28;20281;-87
2021/11/24 04:09:49;;;;;;;10.23;8.10;;;0.70;94.00;;;;;;5096638;28;20235;-87
2021/11/24 04:12:15;;;;;;;11.23;8.40;;;0.70;94.30;;;;;;5077998;28;20202;-87
2021/11/24 04:14:40;;;;;;;9.83;8.83;;;0.70;94.90;;;;;;5090854;28;20632;-87
2021/11/24 04:17:06;;;;;;;11.30;8.60;;;0.60;94.50;;;;;;5096647;28;20701;-87
2021/11/24 04:19:32;;;;;;;10.23;8.30;;;0.60;94.90;;;;;;5075358;28;20216;-87
2021/11/24 04:21:58;;;;;;;10.60;8.33;;;0.50;95.30;;;;;;5070335;28;20255;-87
2021/11/24 04:24:26;;;;;;;12.93;9.53;;;0.50;95.70;;;;;;5094350;28;20199;-87
2021/11/24 04:26:52;;;;;;;10.40;8.47;;;0.50;95.40;;;;;;5096373;28;20278;-87
2021/11/24 04:29:18;;;;;;;10.57;9.10;;;0.40;95.60;;;;;;5095407;28;20719;-87
2021/11/24 04:31:44;;;;;;;13.37;9.40;;;0.40;96.00;;;;;;5088310;28;20191;-87
2021/11/24 04:34:10;;;;;;;10.87;9.37;;;0.30;96.40;;;;;;5094991;28;20213;-87
2021/11/24 04:36:35;;;;;;;14.03;8.87;;;0.40;96.40;;;;;;5089112;28;20189;-87
2021/11/24 04:39:02;;;;;;;10.30;7.77;;;0.40;95.80;;;;;;5069562;28;20465;-87
2021/11/24 04:41:28;;;;;;;13.73;8.93;;;0.40;95.80;;;;;;5089323;28;20191;-87
2021/11/24 04:43:54;;;;;;;9.60;8.27;;;0.40;95.70;;;;;;5080286;28;20179;-87
2021/11/24 04:46:20;;;;;;;10.47;8.57;;;0.30;96.10;;;;;;5074863;28;20194;-87
2021/11/24 04:48:46;;;;;;;9.90;7.70;;;0.40;96.40;;;;;;5083084;28;20191;-87
2021/11/24 04:51:12;;;;;;;10.33;7.33;;;0.40;95.80;;;;;;5097306;28;20491;-87
2021/11/24 04:53:38;;;;;;;8.23;7.37;;;0.50;95.50;;;;;;5091647;28;20269;-87
2021/11/24 04:56:03;;;;;;;9.53;7.57;;;0.50;95.40;;;;;;5091780;28;20194;-87
2021/11/24 04:58:29;;;;;;;11.50;7.77;;;0.40;94.70;;;;;;5096408;28;20199;-87
2021/11/24 05:00:55;;;;;;;10.13;7.47;;;0.40;94.70;;;;;;5093052;28;20225;-87
2021/11/24 05:03:21;;;;;;;9.13;8.17;;;0.30;95.60;;;;;;5068981;28;20202;-87
2021/11/24 05:05:46;;;;;;;8.07;7.17;;;0.30;95.80;;;;;;5055685;28;20782;-87
2021/11/24 05:08:12;;;;;;;8.57;7.63;;;0.40;95.70;;;;;;5106613;28;20203;-87
2021/11/24 05:10:38;;;;;;;9.63;7.70;;;0.40;95.50;;;;;;5109471;28;20199;-87
2021/11/24 05:13:07;;;;;;;13.63;7.47;;;0.40;95.60;;;;;;5105739;28;20204;-87
2021/11/24 05:15:36;;;;;;;8.77;7.87;;;0.50;94.80;;;;;;5099760;28;20182;-87
2021/11/24 05:18:05;;;;;;;10.20;8.20;;;0.50;94.60;;;;;;5085819;28;20182;-87
2021/11/24 05:20:32;;;;;;;8.33;7.53;;;0.40;94.40;;;;;;5088718;28;20226;-87
2021/11/24 05:23:02;;;;;;;9.10;8.20;;;0.40;95.00;;;;;;5073711;28;20260;-87
2021/11/24 05:25:28;;;;;;;9.03;8.23;;;0.40;95.60;;;;;;5093392;28;20191;-88
2021/11/24 05:27:55;;;;;;;9.80;7.43;;;0.40;94.70;;;;;;5088154;28;20211;-87
2021/11/24 05:30:21;;;;;;;10.83;7.10;;;0.40;94.50;;;;;;5080320;28;20223;-87
2021/11/24 05:32:47;;;;;;;12.13;7.13;;;0.40;94.40;;;;;;5076637;28;20711;-88
2021/11/24 05:35:12;;;;;;;8.70;7.17;;;0.40;94.30;;;;;;5086462;28;20203;-87
2021/11/24 05:37:38;;;;;;;9.90;7.17;;;0.40;94.30;;;;;;5077721;28;20187;-86
2021/11/24 05:40:04;;;;;;;12.83;6.97;;;0.40;93.90;;;;;;5074979;28;20275;-87
2021/11/24 05:42:30;;;;;;;9.97;7.00;;;0.40;94.50;;;;;;5078643;28;20492;-87
2021/11/24 05:48:08;;;;;;;8.67;7.07;;;0.30;94.10;;;;;;5066824;28;20214;-87
2021/11/24 05:50:34;;;;;;;7.63;6.93;;;0.30;94.50;;;;;;5094598;28;20209;-87
2021/11/24 05:53:00;;;;;;;8.40;7.47;;;0.30;94.80;;;;;;5078500;28;20197;-87
2021/11/24 05:55:26;;;;;;;8.97;7.13;;;0.30;94.90;;;;;;5115915;28;20236;-86
2021/11/24 05:57:52;;;;;;;8.37;7.47;;;0.30;94.30;;;;;;5088470;28;20298;-87
2021/11/24 06:00:18;;;;;;;9.23;7.00;;;0.30;95.20;;;;;;5095359;28;20351;-87
2021/11/24 06:02:45;;;;;;;8.13;7.33;;;0.20;94.70;;;;;;5091027;28;20186;-87
2021/11/24 06:05:11;;;;;;;9.00;7.73;;;0.20;95.40;;;;;;5092266;28;20658;-87
2021/11/24 06:07:37;;;;;;;9.13;7.43;;;0.20;96.10;;;;;;5074036;28;20301;-87
2021/11/24 06:10:08;;;;;;;9.70;7.90;;;0.20;96.30;;;;;;5092143;28;20226;-87
2021/11/24 06:12:33;;;;;;;9.53;7.80;;;0.30;96.50;;;;;;5097234;28;20186;-87
2021/11/24 06:14:59;;;;;;;9.67;7.93;;;0.40;96.30;;;;;;5081009;28;20266;-87
2021/11/24 06:17:25;;;;;;;9.07;7.63;;;0.40;96.00;;;;;;5094921;28;20354;-87
2021/11/24 06:19:51;;;;;;;11.97;8.27;;;0.40;95.00;;;;;;5095873;28;20356;-86
2021/11/24 06:22:17;;;;;;;9.77;8.47;;;0.30;95.80;;;;;;5101718;28;20195;-86
2021/11/24 06:24:43;;;;;;;9.13;8.03;;;0.30;96.20;;;;;;5102264;28;20215;-87
2021/11/24 06:27:09;;;;;;;10.90;9.00;;;0.30;96.00;;;;;;5097157;28;20230;-86
2021/11/24 06:29:35;;;;;;;9.53;8.10;;;0.30;96.30;;;;;;5101156;28;20353;-87
2021/11/24 06:32:01;;;;;;;8.53;7.67;;;0.30;96.10;;;;;;5098114;28;20191;-87
2021/11/24 06:34:26;;;;;;;9.63;7.93;;;0.40;95.80;;;;;;5102848;28;20186;-86
2021/11/24 06:36:53;;;;;;;10.67;8.57;;;0.40;95.40;;;;;;5118350;28;20202;-86
2021/11/24 06:39:23;;;;;;;13.13;8.97;;;0.50;94.90;;;;;;5098698;28;20198;-87
2021/11/24 06:41:50;;;;;;;10.13;9.13;;;0.50;94.90;;;;;;5076060;28;20197;-87
2021/11/24 06:44:16;;;;;;;11.27;9.43;;;0.60;94.80;;;;;;5107430;28;20195;-86
2021/11/24 06:46:42;;;;;;;15.23;11.77;;;0.60;93.30;;;;;;5115455;28;20206;-86
2021/11/24 06:49:08;;;;;;;15.30;11.10;;;0.60;93.50;;;;;;5099290;28;20187;-87
2021/11/24 06:51:34;;;;;;;14.77;11.53;;;0.50;93.00;;;;;;5076146;28;20294;-85
2021/11/24 06:54:01;;;;;;;17.00;10.83;;;0.40;93.40;;;;;;5098925;28;20191;-86
2021/11/24 06:56:27;;;;;;;26.80;18.17;;;0.30;94.30;;;;;;5073812;28;20206;-87
2021/11/24 06:58:53;;;;;;;26.90;18.17;;;0.20;94.90;;;;;;5089366;28;20207;-86
2021/11/24 07:01:18;;;;;;;17.97;13.93;;;0.10;96.20;;;;;;5097008;28;20224;-86
2021/11/24 07:03:44;;;;;;;14.43;10.97;;;0.10;97.70;;;;;;5089622;28;20202;-86
2021/11/24 07:06:10;;;;;;;11.87;9.93;;;0.00;98.00;;;;;;5093576;28;20690;-87
2021/11/24 07:08:36;;;;;;;16.33;10.87;;;0.00;98.30;;;;;;5092423;28;20217;-87
2021/11/24 07:11:01;;;;;;;15.37;11.87;;;0.00;99.00;;;;;;5074201;28;20234;-86
2021/11/24 07:13:27;;;;;;;13.83;11.37;;;0.00;99.40;;;;;;5095777;28;20261;-86
2021/11/24 07:15:52;;;;;;;14.17;10.30;;;0.00;99.40;;;;;;5089832;28;20204;-86
2021/11/24 07:18:18;;;;;;;13.33;11.07;;;0.00;99.60;;;;;;5076973;28;20197;-87
2021/11/24 07:20:44;;;;;;;17.77;11.20;;;0.00;99.60;;;;;;5090793;28;20206;-87
2021/11/24 07:23:10;;;;;;;18.13;12.30;;;0.10;99.90;;;;;;5095900;28;20191;-86
2021/11/24 07:25:35;;;;;;;16.43;12.37;;;0.10;99.40;;;;;;5098092;28;20206;-87
2021/11/24 07:28:01;;;;;;;15.90;12.20;;;0.10;99.50;;;;;;5099837;28;20215;-86
2021/11/24 07:30:27;;;;;;;18.60;12.40;;;0.10;99.90;;;;;;5095866;28;20243;-87
2021/11/24 07:32:54;;;;;;;15.77;11.97;;;0.10;99.90;;;;;;5097706;28;20265;-86
2021/11/24 07:35:19;;;;;;;18.00;12.83;;;0.10;99.90;;;;;;5100339;28;20213;-87
2021/11/24 07:37:45;;;;;;;17.13;12.23;;;0.10;99.70;;;;;;5096609;28;20183;-86
2021/11/24 07:40:12;;;;;;;14.27;11.07;;;0.20;99.90;;;;;;5093559;28;20211;-86
2021/11/24 07:42:38;;;;;;;16.67;12.83;;;0.20;99.90;;;;;;5095970;28;20397;-87
2021/11/24 07:45:05;;;;;;;17.20;12.50;;;0.30;99.80;;;;;;5082420;28;20344;-86
2021/11/24 07:47:31;;;;;;;17.57;11.87;;;0.30;99.90;;;;;;5080826;28;20226;-86
2021/11/24 07:49:57;;;;;;;17.70;12.93;;;0.40;99.90;;;;;;5089636;28;20211;-86
2021/11/24 07:52:23;;;;;;;17.40;12.37;;;0.40;99.90;;;;;;5092711;28;20179;-86
2021/11/24 07:54:49;;;;;;;18.23;12.80;;;0.30;99.90;;;;;;5059267;28;20257;-86
2021/11/24 07:57:17;;;;;;;16.93;12.37;;;0.40;99.90;;;;;;5074799;28;20195;-87
2021/11/24 07:59:42;;;;;;;13.80;10.80;;;0.30;99.90;;;;;;5093229;28;20233;-87
2021/11/24 08:02:08;;;;;;;14.77;11.33;;;0.40;99.90;;;;;;5091089;28;20191;-87
2021/11/24 08:04:34;;;;;;;15.90;11.90;;;0.40;99.90;;;;;;5094789;28;20278;-87
2021/11/24 08:07:02;;;;;;;14.33;12.23;;;0.40;99.90;;;;;;5093153;28;20219;-86
2021/11/24 08:09:28;;;;;;;17.03;12.17;;;0.50;99.90;;;;;;5074290;28;20716;-87
2021/11/24 08:11:54;;;;;;;17.63;11.77;;;0.60;99.90;;;;;;5073512;28;20183;-87
2021/11/24 08:14:20;;;;;;;15.00;10.50;;;0.60;99.90;;;;;;5089769;28;20504;-87
2021/11/24 08:16:45;;;;;;;12.83;10.10;;;0.70;99.90;;;;;;5094303;28;20542;-86
2021/11/24 08:19:11;;;;;;;14.57;10.30;;;0.70;99.90;;;;;;5085330;28;20187;-86
2021/11/24 08:21:37;;;;;;;16.97;10.33;;;0.80;99.90;;;;;;5079737;28;20212;-86
2021/11/24 08:24:04;;;;;;;14.77;10.53;;;0.90;99.90;;;;;;5108525;28;20630;-87
2021/11/24 08:26:30;;;;;;;13.63;10.70;;;0.90;99.90;;;;;;5112021;28;20210;-86
2021/11/24 08:28:56;;;;;;;12.97;10.00;;;0.90;99.90;;;;;;5101555;28;20706;-87
2021/11/24 08:31:21;;;;;;;14.53;11.57;;;0.90;99.90;;;;;;5094474;28;20227;-88
2021/11/24 08:33:47;;;;;;;12.57;9.80;;;1.00;99.90;;;;;;5096421;28;20191;-87
2021/11/24 08:36:15;;;;;;;13.07;10.43;;;1.20;99.90;;;;;;5100135;28;20225;-87
2021/11/24 08:38:42;;;;;;;11.27;9.70;;;1.30;99.00;;;;;;5093946;28;20175;-87
2021/11/24 08:41:11;;;;;;;14.43;10.83;;;1.40;98.90;;;;;;5094077;28;20235;-87
2021/11/24 08:43:38;;;;;;;15.47;9.90;;;1.40;98.60;;;;;;5082491;28;20194;-87
2021/11/24 08:46:04;;;;;;;14.90;10.67;;;1.50;98.20;;;;;;5087646;28;20187;-87
2021/11/24 08:48:30;;;;;;;13.10;10.10;;;1.50;98.50;;;;;;5077117;28;20229;-88
2021/11/24 08:50:56;;;;;;;14.27;10.73;;;1.50;97.90;;;;;;5086189;28;20234;-87
2021/11/24 08:53:23;;;;;;;12.83;10.47;;;1.60;97.60;;;;;;5087206;28;20183;-87
2021/11/24 08:55:49;;;;;;;13.30;10.33;;;1.70;97.00;;;;;;5090317;28;20199;-87
2021/11/24 08:58:15;;;;;;;17.13;10.97;;;1.70;96.90;;;;;;5088378;28;20611;-87
2021/11/24 09:00:41;;;;;;;13.70;10.67;;;1.70;97.20;;;;;;5086688;28;20225;-87
2021/11/24 09:03:08;;;;;;;13.60;10.83;;;1.80;96.70;;;;;;5083239;28;20237;-87
2021/11/24 09:05:34;;;;;;;15.07;11.57;;;2.00;95.90;;;;;;5092570;28;20266;-87
2021/11/24 09:07:59;;;;;;;15.13;10.63;;;2.00;95.00;;;;;;5082045;28;20704;-88
2021/11/24 09:10:26;;;;;;;13.00;10.53;;;2.00;95.10;;;;;;5090876;28;20210;-87
2021/11/24 09:12:53;;;;;;;13.60;10.87;;;2.10;95.50;;;;;;5088554;28;20198;-87
2021/11/24 09:15:19;;;;;;;14.60;11.07;;;2.10;94.70;;;;;;5089381;28;20185;-88
2021/11/24 09:17:45;;;;;;;13.13;10.03;;;2.30;94.20;;;;;;5078477;28;20191;-87
2021/11/24 09:20:11;;;;;;;14.73;11.30;;;2.30;94.60;;;;;;5110821;28;20209;-87
2021/11/24 09:22:41;;;;;;;14.37;11.03;;;2.30;94.60;;;;;;5099109;28;20688;-88
2021/11/24 09:25:10;;;;;;;13.90;10.77;;;2.50;93.30;;;;;;5092490;28;20219;-88
2021/11/24 09:27:46;;;;;;;15.20;10.63;;;2.60;92.30;;;;;;5102092;28;20314;-87
2021/11/24 09:30:13;;;;;;;11.90;9.80;;;2.60;92.20;;;;;;5099794;28;20210;-87
2021/11/24 09:32:41;;;;;;;12.87;10.50;;;2.70;91.30;;;;;;5097819;28;20535;-88
2021/11/24 09:35:08;;;;;;;12.20;10.90;;;2.80;91.30;;;;;;5089955;28;20183;-87
2021/11/24 09:37:34;;;;;;;13.00;10.37;;;2.80;90.80;;;;;;5092110;28;20202;-87
2021/11/24 09:40:00;;;;;;;15.60;10.73;;;2.90;90.00;;;;;;5091520;28;20233;-88
2021/11/24 09:42:28;;;;;;;12.87;10.67;;;3.00;89.60;;;;;;5091309;28;20191;-87
2021/11/24 09:44:56;;;;;;;12.10;10.20;;;3.10;89.50;;;;;;5084653;28;20187;-87
2021/11/24 09:47:25;;;;;;;13.40;10.43;;;3.20;89.10;;;;;;5071916;28;20221;-87
2021/11/24 09:49:56;;;;;;;13.67;10.60;;;3.30;88.40;;;;;;5080995;28;20200;-87
2021/11/24 09:52:23;;;;;;;13.03;11.63;;;3.50;88.00;;;;;;5090296;28;20197;-87
2021/11/24 09:54:51;;;;;;;11.87;10.60;;;3.60;87.70;;;;;;5087422;28;20191;-87
2021/11/24 09:57:20;;;;;;;12.47;10.60;;;3.70;87.30;;;;;;5083131;28;20206;-87
2021/11/24 09:59:46;;;;;;;13.07;11.07;;;3.90;86.50;;;;;;5070275;28;20306;-88
2021/11/24 10:02:13;;;;;;;13.03;11.10;;;4.00;85.90;;;;;;5066604;28;20194;-88
2021/11/24 10:04:44;;;;;;;12.77;10.47;;;4.10;85.30;;;;;;5075692;28;20188;-88
2021/11/24 10:07:11;;;;;;;13.27;10.43;;;4.30;84.30;;;;;;5065758;28;20227;-88
2021/11/24 10:09:37;;;;;;;14.93;12.00;;;4.40;83.80;;;;;;5087267;28;20219;-88
2021/11/24 10:12:04;;;;;;;16.07;12.10;;;4.40;84.00;;;;;;5093527;28;20194;-88
2021/11/24 10:14:29;;;;;;;16.53;13.43;;;4.40;84.00;;;;;;5090252;28;20178;-88
2021/11/24 10:17:05;;;;;;;14.40;12.80;;;4.40;83.50;;;;;;5082236;28;20194;-88
2021/11/24 10:19:30;;;;;;;13.37;11.87;;;4.40;83.60;;;;;;5085697;28;20187;-88
2021/11/24 10:22:02;;;;;;;14.03;12.13;;;4.50;83.70;;;;;;5095754;28;20206;-88
2021/11/24 10:24:32;;;;;;;13.00;11.63;;;4.60;81.90;;;;;;5099491;28;20214;-88
2021/11/24 10:27:00;;;;;;;13.93;12.53;;;4.70;81.90;;;;;;5089331;28;20890;-88
2021/11/24 10:29:28;;;;;;;16.60;12.23;;;4.90;81.70;;;;;;5092835;28;20851;-88
2021/11/24 10:31:59;;;;;;;14.27;12.60;;;4.80;80.40;;;;;;5090211;28;20183;-88
2021/11/24 10:34:37;;;;;;;13.53;11.87;;;4.80;80.80;;;;;;5093348;28;20184;-88
2021/11/24 10:37:09;;;;;;;16.03;12.50;;;4.80;81.20;;;;;;5081995;28;20194;-88
2021/11/24 10:39:55;;;;;;;14.37;12.70;;;4.80;81.30;;;;;;5095941;28;20206;-88
2021/11/24 10:42:31;;;;;;;14.93;12.77;;;4.80;79.90;;;;;;5070651;28;20437;-88
2021/11/24 10:45:00;;;;;;;15.97;13.37;;;4.80;79.60;;;;;;5093464;28;20198;-88
2021/11/24 10:47:27;;;;;;;17.33;15.37;;;4.80;80.30;;;;;;5074350;28;20226;-88
2021/11/24 10:49:58;;;;;;;16.30;12.63;;;4.90;79.60;;;;;;5097184;28;20310;-88
2021/11/24 10:52:29;;;;;;;15.90;13.90;;;5.10;79.60;;;;;;5094841;28;20191;-88
2021/11/24 10:55:18;;;;;;;19.57;17.67;;;5.10;79.00;;;;;;5109494;28;20218;-88
2021/11/24 10:57:58;;;;;;;16.37;13.57;;;5.10;79.10;;;;;;5099789;28;20608;-88
2021/11/24 11:00:36;;;;;;;15.67;12.60;;;5.30;78.90;;;;;;5096082;28;20709;-88
2021/11/24 11:03:02;;;;;;;16.13;13.20;;;5.20;77.90;;;;;;5095692;28;20195;-88
2021/11/24 11:05:29;;;;;;;15.20;13.20;;;5.20;78.10;;;;;;5095220;28;20829;-88
2021/11/24 11:08:02;;;;;;;16.20;13.63;;;5.40;77.80;;;;;;5078633;28;20252;-89
2021/11/24 11:10:30;;;;;;;15.13;13.43;;;5.50;75.90;;;;;;5081375;28;20259;-88
2021/11/24 11:12:58;;;;;;;17.70;13.23;;;5.50;75.80;;;;;;5093285;28;20205;-88
2021/11/24 11:15:33;;;;;;;14.93;13.27;;;5.60;75.40;;;;;;5093377;28;20213;-88
2021/11/24 11:18:08;;;;;;;16.00;13.83;;;5.80;75.10;;;;;;5091524;28;20191;-88
2021/11/24 11:20:41;;;;;;;14.67;13.07;;;6.10;75.00;;;;;;5095054;28;20570;-89
2021/11/24 11:23:13;;;;;;;15.67;12.83;;;6.20;72.20;;;;;;5092244;28;20226;-88
2021/11/24 11:25:46;;;;;;;14.70;12.90;;;6.10;72.00;;;;;;5092240;28;20202;-88
2021/11/24 11:28:12;;;;;;;14.43;12.83;;;6.40;72.60;;;;;;5087786;28;20199;-88
2021/11/24 11:30:41;;;;;;;15.73;13.60;;;6.30;70.90;;;;;;5098394;28;20772;-88
2021/11/24 11:33:08;;;;;;;14.23;12.77;;;6.40;70.40;;;;;;5106776;28;20196;-88
2021/11/24 11:35:34;;;;;;;15.63;12.90;;;6.20;71.10;;;;;;5079423;28;20199;-88
2021/11/24 11:38:01;;;;;;;14.23;12.73;;;6.10;71.40;;;;;;5075865;28;20289;-88
2021/11/24 11:40:28;;;;;;;17.63;13.40;;;6.30;70.80;;;;;;5093771;28;20215;-88
2021/11/24 11:43:00;;;;;;;15.07;12.83;;;6.10;71.30;;;;;;5094536;28;20277;-88
2021/11/24 11:45:29;;;;;;;16.27;12.73;;;6.10;70.70;;;;;;5091650;28;20672;-88
2021/11/24 11:47:57;;;;;;;14.20;12.60;;;5.90;70.90;;;;;;5087453;28;20597;-88
2021/11/24 11:51:13;;;;;;;16.00;13.73;;;6.10;70.40;;;;;;5085269;28;20212;-88
2021/11/24 11:53:55;;;;;;;15.67;12.73;;;5.90;71.50;;;;;;5085312;28;20191;-87
2021/11/24 11:56:47;;;;;;;13.10;11.77;;;6.30;70.50;;;;;;5068311;28;20698;-87
2021/11/24 11:59:18;;;;;;;19.20;13.00;;;6.70;68.20;;;;;;5111304;28;20220;-87
2021/11/24 12:01:43;;;;;;;13.80;12.30;;;7.00;67.30;;;;;;5090251;28;20187;-88
2021/11/24 12:04:20;;;;;;;14.23;12.47;;;7.10;66.50;;;;;;5079414;28;20205;-87
2021/11/24 12:06:52;;;;;;;13.60;12.20;;;7.10;65.40;;;;;;5083890;28;20190;-87
2021/11/24 12:09:29;;;;;;;14.53;12.90;;;7.10;65.90;;;;;;5118094;28;20174;-86
2021/11/24 12:12:12;;;;;;;14.87;13.27;;;7.10;66.00;;;;;;5105385;28;20191;-87
2021/11/24 12:14:46;;;;;;;13.80;12.40;;;7.00;66.00;;;;;;5096662;28;20214;-87
2021/11/24 12:17:28;;;;;;;13.80;12.43;;;6.90;66.90;;;;;;5088903;28;20196;-87
2021/11/24 12:20:03;;;;;;;15.97;12.57;;;6.90;66.50;;;;;;5091575;28;20206;-87
2021/11/24 12:22:50;;;;;;;13.80;12.50;;;6.80;66.50;;;;;;5086972;28;20627;-87
2021/11/24 12:25:28;;;;;;;13.60;11.87;;;6.90;66.10;;;;;;5082277;28;20188;-87
2021/11/24 12:27:57;;;;;;;14.37;12.03;;;6.90;65.20;;;;;;5086264;28;20222;-87
2021/11/24 12:30:35;;;;;;;16.33;11.60;;;7.00;64.60;;;;;;5074437;28;20756;-87
2021/11/24 12:33:24;;;;;;;13.43;12.13;;;7.20;64.10;;;;;;5091197;28;20186;-87
2021/11/24 12:36:23;;;;;;;13.63;11.53;;;7.10;64.50;;;;;;5090457;28;20201;-88
2021/11/24 12:38:55;;;;;;;13.47;12.17;;;7.10;64.70;;;;;;5073308;28;20183;-87
2021/11/24 12:41:34;;;;;;;17.13;13.00;;;7.30;63.50;;;;;;5070288;28;20247;-88
2021/11/24 12:44:03;;;;;;;12.07;10.77;;;7.30;64.20;;;;;;5086274;28;20179;-88
2021/11/24 12:46:34;;;;;;;13.60;12.30;;;7.30;64.20;;;;;;5082748;28;20338;-87
2021/11/24 12:49:10;;;;;;;14.00;12.20;;;7.00;63.50;;;;;;5085584;28;20182;-88
2021/11/24 12:51:46;;;;;;;13.53;12.10;;;6.80;64.80;;;;;;5088368;28;20188;-88